sensor_id;sensor_type;location;lat;lon;timestamp;P1;durP1;ratioP1;P2;durP2;ratioP2
33840;SDS011;20142;28.494;-16.312;2023-10-08T00:03:53;134.38;;;19.20;;
33840;SDS011;20142;28.494;-16.312;2023-10-08T00:08:58;144.27;;;21.00;;
33840;SDS011;20142;28.494;-16.312;2023-10-08T00:14:01;146.73;;;19.33;;
33840;SDS011;20142;28.494;-16.312;2023-10-08T00:19:09;120.93;;;17.33;;
33840;SDS011;20142;28.494;-16.312;2023-10-08T00:24:15;142.55;;;18.63;;
33840;SDS011;20142;28.494;-16.312;2023-10-08T00:29:17;118.40;;;17.52;;
33840;SDS011;20142;28.494;-16.312;2023-10-08T00:34:22;119.57;;;16.65;;
33840;SDS011;20142;28.494;-16.312;2023-10-08T00:39:28;127.25;;;17.42;;
33840;SDS011;20142;28.494;-16.312;2023-10-08T00:44:35;170.88;;;20.23;;
33840;SDS011;20142;28.494;-16.312;2023-10-08T00:49:51;135.63;;;20.15;;
33840;SDS011;20142;28.494;-16.312;2023-10-08T00:55:08;113.28;;;16.02;;
33840;SDS011;20142;28.494;-16.312;2023-10-08T01:00:15;195.23;;;24.67;;
33840;SDS011;20142;28.494;-16.312;2023-10-08T01:05:21;113.38;;;16.45;;
33840;SDS011;20142;28.494;-16.312;2023-10-08T01:10:38;109.00;;;14.52;;
33840;SDS011;20142;28.494;-16.312;2023-10-08T01:15:58;97.45;;;12.75;;
33840;SDS011;20142;28.494;-16.312;2023-10-08T01:21:00;64.93;;;12.80;;
33840;SDS011;20142;28.494;-16.312;2023-10-08T01:26:08;106.63;;;15.98;;
33840;SDS011;20142;28.494;-16.312;2023-10-08T01:31:13;156.52;;;20.27;;
33840;SDS011;20142;28.494;-16.312;2023-10-08T01:36:16;135.63;;;17.90;;
33840;SDS011;20142;28.494;-16.312;2023-10-08T01:41:17;109.40;;;15.98;;
33840;SDS011;20142;28.494;-16.312;2023-10-08T01:46:19;150.63;;;19.02;;
33840;SDS011;20142;28.494;-16.312;2023-10-08T01:51:22;186.10;;;22.27;;
33840;SDS011;20142;28.494;-16.312;2023-10-08T01:56:37;146.32;;;18.38;;
33840;SDS011;20142;28.494;-16.312;2023-10-08T02:01:43;176.70;;;20.15;;
33840;SDS011;20142;28.494;-16.312;2023-10-08T02:06:48;154.38;;;19.10;;
33840;SDS011;20142;28.494;-16.312;2023-10-08T02:11:51;77.03;;;14.40;;
33840;SDS011;20142;28.494;-16.312;2023-10-08T02:16:58;153.65;;;19.58;;
33840;SDS011;20142;28.494;-16.312;2023-10-08T02:22:06;144.75;;;19.13;;
33840;SDS011;20142;28.494;-16.312;2023-10-08T02:27:10;151.35;;;19.52;;
33840;SDS011;20142;28.494;-16.312;2023-10-08T02:32:14;126.53;;;16.52;;
33840;SDS011;20142;28.494;-16.312;2023-10-08T02:37:16;135.52;;;16.90;;
33840;SDS011;20142;28.494;-16.312;2023-10-08T02:42:20;123.25;;;17.73;;
33840;SDS011;20142;28.494;-16.312;2023-10-08T02:47:23;69.55;;;12.25;;
33840;SDS011;20142;28.494;-16.312;2023-10-08T02:52:25;110.50;;;16.85;;
33840;SDS011;20142;28.494;-16.312;2023-10-08T02:57:26;113.18;;;15.57;;
33840;SDS011;20142;28.494;-16.312;2023-10-08T03:02:30;69.50;;;12.32;;
33840;SDS011;20142;28.494;-16.312;2023-10-08T03:07:32;90.85;;;13.18;;
33840;SDS011;20142;28.494;-16.312;2023-10-08T03:12:34;121.45;;;15.93;;
33840;SDS011;20142;28.494;-16.312;2023-10-08T03:17:36;96.75;;;14.60;;
33840;SDS011;20142;28.494;-16.312;2023-10-08T03:22:49;134.07;;;16.55;;
33840;SDS011;20142;28.494;-16.312;2023-10-08T03:27:50;63.85;;;11.38;;
33840;SDS011;20142;28.494;-16.312;2023-10-08T03:32:54;93.60;;;12.80;;
33840;SDS011;20142;28.494;-16.312;2023-10-08T03:37:56;83.20;;;11.82;;
33840;SDS011;20142;28.494;-16.312;2023-10-08T03:43:18;70.78;;;10.13;;
33840;SDS011;20142;28.494;-16.312;2023-10-08T03:48:34;80.85;;;9.93;;
33840;SDS011;20142;28.494;-16.312;2023-10-08T03:53:38;59.33;;;9.60;;
33840;SDS011;20142;28.494;-16.312;2023-10-08T03:58:59;62.35;;;9.02;;
33840;SDS011;20142;28.494;-16.312;2023-10-08T04:04:13;54.25;;;8.75;;
33840;SDS011;20142;28.494;-16.312;2023-10-08T04:09:15;57.78;;;8.82;;
33840;SDS011;20142;28.494;-16.312;2023-10-08T04:14:26;50.47;;;7.93;;
33840;SDS011;20142;28.494;-16.312;2023-10-08T04:19:29;54.13;;;8.20;;
33840;SDS011;20142;28.494;-16.312;2023-10-08T04:24:31;53.47;;;6.72;;
33840;SDS011;20142;28.494;-16.312;2023-10-08T04:29:35;40.70;;;7.65;;
33840;SDS011;20142;28.494;-16.312;2023-10-08T04:34:38;47.08;;;7.22;;
33840;SDS011;20142;28.494;-16.312;2023-10-08T04:39:45;42.25;;;6.75;;
33840;SDS011;20142;28.494;-16.312;2023-10-08T04:44:55;37.20;;;6.75;;
33840;SDS011;20142;28.494;-16.312;2023-10-08T04:49:59;38.35;;;6.63;;
33840;SDS011;20142;28.494;-16.312;2023-10-08T04:55:05;35.00;;;6.72;;
33840;SDS011;20142;28.494;-16.312;2023-10-08T05:00:16;39.42;;;6.82;;
33840;SDS011;20142;28.494;-16.312;2023-10-08T05:05:40;34.85;;;6.05;;
33840;SDS011;20142;28.494;-16.312;2023-10-08T05:11:06;26.65;;;5.75;;
33840;SDS011;20142;28.494;-16.312;2023-10-08T05:16:25;35.60;;;6.47;;
33840;SDS011;20142;28.494;-16.312;2023-10-08T05:22:01;28.33;;;6.22;;
33840;SDS011;20142;28.494;-16.312;2023-10-08T05:27:18;35.88;;;6.22;;
33840;SDS011;20142;28.494;-16.312;2023-10-08T05:32:38;26.02;;;5.22;;
33840;SDS011;20142;28.494;-16.312;2023-10-08T05:37:58;21.30;;;6.10;;
33840;SDS011;20142;28.494;-16.312;2023-10-08T05:43:14;29.33;;;5.95;;
33840;SDS011;20142;28.494;-16.312;2023-10-08T05:48:34;19.27;;;5.45;;
33840;SDS011;20142;28.494;-16.312;2023-10-08T05:53:45;27.00;;;5.50;;
33840;SDS011;20142;28.494;-16.312;2023-10-08T05:58:50;25.17;;;5.47;;
33840;SDS011;20142;28.494;-16.312;2023-10-08T06:04:12;28.10;;;6.20;;
33840;SDS011;20142;28.494;-16.312;2023-10-08T06:09:42;17.95;;;5.28;;
33840;SDS011;20142;28.494;-16.312;2023-10-08T06:15:01;20.55;;;5.22;;
33840;SDS011;20142;28.494;-16.312;2023-10-08T06:20:12;20.80;;;5.57;;
33840;SDS011;20142;28.494;-16.312;2023-10-08T06:25:17;22.08;;;5.07;;
33840;SDS011;20142;28.494;-16.312;2023-10-08T06:30:24;22.75;;;4.70;;
33840;SDS011;20142;28.494;-16.312;2023-10-08T06:35:29;21.73;;;5.72;;
33840;SDS011;20142;28.494;-16.312;2023-10-08T06:40:34;21.15;;;5.15;;
33840;SDS011;20142;28.494;-16.312;2023-10-08T06:45:40;20.40;;;4.88;;
33840;SDS011;20142;28.494;-16.312;2023-10-08T06:50:44;30.65;;;5.53;;
33840;SDS011;20142;28.494;-16.312;2023-10-08T06:55:47;21.10;;;5.35;;
33840;SDS011;20142;28.494;-16.312;2023-10-08T07:00:49;25.52;;;5.13;;
33840;SDS011;20142;28.494;-16.312;2023-10-08T07:05:51;22.38;;;5.20;;
33840;SDS011;20142;28.494;-16.312;2023-10-08T07:11:00;23.40;;;5.47;;
33840;SDS011;20142;28.494;-16.312;2023-10-08T07:16:07;27.30;;;5.10;;
33840;SDS011;20142;28.494;-16.312;2023-10-08T07:21:11;19.25;;;4.95;;
33840;SDS011;20142;28.494;-16.312;2023-10-08T07:26:15;28.55;;;6.50;;
33840;SDS011;20142;28.494;-16.312;2023-10-08T07:31:19;25.45;;;5.38;;
33840;SDS011;20142;28.494;-16.312;2023-10-08T07:36:24;24.92;;;5.05;;
33840;SDS011;20142;28.494;-16.312;2023-10-08T07:41:31;26.83;;;5.60;;
33840;SDS011;20142;28.494;-16.312;2023-10-08T07:46:34;24.83;;;5.40;;
33840;SDS011;20142;28.494;-16.312;2023-10-08T07:51:36;21.98;;;4.80;;
33840;SDS011;20142;28.494;-16.312;2023-10-08T07:56:38;28.05;;;5.35;;
33840;SDS011;20142;28.494;-16.312;2023-10-08T08:01:40;26.90;;;5.53;;
33840;SDS011;20142;28.494;-16.312;2023-10-08T08:06:42;19.67;;;5.95;;
33840;SDS011;20142;28.494;-16.312;2023-10-08T08:11:44;20.77;;;4.97;;
33840;SDS011;20142;28.494;-16.312;2023-10-08T08:16:47;24.83;;;5.13;;
33840;SDS011;20142;28.494;-16.312;2023-10-08T08:21:49;24.27;;;6.68;;
33840;SDS011;20142;28.494;-16.312;2023-10-08T08:26:53;22.27;;;5.00;;
33840;SDS011;20142;28.494;-16.312;2023-10-08T08:32:12;24.45;;;5.30;;
33840;SDS011;20142;28.494;-16.312;2023-10-08T08:37:22;29.00;;;5.28;;
33840;SDS011;20142;28.494;-16.312;2023-10-08T08:42:27;24.88;;;4.97;;
33840;SDS011;20142;28.494;-16.312;2023-10-08T08:47:32;22.60;;;5.50;;
33840;SDS011;20142;28.494;-16.312;2023-10-08T08:52:35;23.58;;;5.47;;
33840;SDS011;20142;28.494;-16.312;2023-10-08T08:57:38;31.77;;;6.70;;
33840;SDS011;20142;28.494;-16.312;2023-10-08T09:02:40;28.10;;;6.32;;
33840;SDS011;20142;28.494;-16.312;2023-10-08T09:08:04;24.48;;;5.75;;
33840;SDS011;20142;28.494;-16.312;2023-10-08T09:13:10;23.10;;;5.68;;
33840;SDS011;20142;28.494;-16.312;2023-10-08T09:18:11;25.10;;;5.38;;
33840;SDS011;20142;28.494;-16.312;2023-10-08T09:23:16;28.10;;;5.80;;
33840;SDS011;20142;28.494;-16.312;2023-10-08T09:28:19;26.48;;;5.65;;
33840;SDS011;20142;28.494;-16.312;2023-10-08T09:33:22;30.90;;;6.45;;
33840;SDS011;20142;28.494;-16.312;2023-10-08T09:38:24;22.50;;;5.82;;
33840;SDS011;20142;28.494;-16.312;2023-10-08T09:43:30;22.67;;;7.07;;
33840;SDS011;20142;28.494;-16.312;2023-10-08T09:48:36;28.38;;;5.43;;
33840;SDS011;20142;28.494;-16.312;2023-10-08T09:53:52;26.13;;;5.45;;
33840;SDS011;20142;28.494;-16.312;2023-10-08T09:59:04;22.88;;;4.78;;
33840;SDS011;20142;28.494;-16.312;2023-10-08T10:04:10;27.20;;;6.60;;
33840;SDS011;20142;28.494;-16.312;2023-10-08T10:14:40;28.35;;;6.18;;
33840;SDS011;20142;28.494;-16.312;2023-10-08T10:20:00;21.55;;;5.80;;
33840;SDS011;20142;28.494;-16.312;2023-10-08T10:25:04;23.00;;;5.80;;
33840;SDS011;20142;28.494;-16.312;2023-10-08T10:30:17;27.25;;;5.82;;
33840;SDS011;20142;28.494;-16.312;2023-10-08T10:35:20;34.47;;;6.68;;
33840;SDS011;20142;28.494;-16.312;2023-10-08T10:40:22;33.22;;;6.75;;
33840;SDS011;20142;28.494;-16.312;2023-10-08T10:45:40;29.40;;;5.65;;
33840;SDS011;20142;28.494;-16.312;2023-10-08T10:50:51;29.13;;;5.93;;
33840;SDS011;20142;28.494;-16.312;2023-10-08T10:56:05;26.17;;;6.53;;
33840;SDS011;20142;28.494;-16.312;2023-10-08T11:01:10;24.15;;;6.15;;
33840;SDS011;20142;28.494;-16.312;2023-10-08T11:06:24;29.27;;;6.22;;
33840;SDS011;20142;28.494;-16.312;2023-10-08T11:11:26;26.13;;;5.88;;
33840;SDS011;20142;28.494;-16.312;2023-10-08T11:16:31;25.45;;;6.25;;
33840;SDS011;20142;28.494;-16.312;2023-10-08T11:21:47;23.70;;;5.43;;
33840;SDS011;20142;28.494;-16.312;2023-10-08T11:26:50;25.70;;;5.53;;
33840;SDS011;20142;28.494;-16.312;2023-10-08T11:32:06;31.67;;;6.03;;
33840;SDS011;20142;28.494;-16.312;2023-10-08T11:37:13;31.55;;;5.82;;
33840;SDS011;20142;28.494;-16.312;2023-10-08T11:42:20;27.80;;;6.22;;
33840;SDS011;20142;28.494;-16.312;2023-10-08T11:47:37;23.08;;;5.97;;
33840;SDS011;20142;28.494;-16.312;2023-10-08T11:52:43;31.55;;;6.40;;
33840;SDS011;20142;28.494;-16.312;2023-10-08T11:57:45;25.17;;;5.88;;
33840;SDS011;20142;28.494;-16.312;2023-10-08T12:02:49;27.33;;;6.30;;
33840;SDS011;20142;28.494;-16.312;2023-10-08T12:07:55;32.97;;;6.10;;
33840;SDS011;20142;28.494;-16.312;2023-10-08T12:12:58;27.33;;;5.88;;
33840;SDS011;20142;28.494;-16.312;2023-10-08T12:18:00;22.75;;;5.70;;
33840;SDS011;20142;28.494;-16.312;2023-10-08T12:23:25;24.70;;;6.60;;
33840;SDS011;20142;28.494;-16.312;2023-10-08T12:28:26;32.00;;;7.40;;
33840;SDS011;20142;28.494;-16.312;2023-10-08T12:33:28;28.05;;;6.20;;
33840;SDS011;20142;28.494;-16.312;2023-10-08T12:38:30;29.38;;;5.95;;
33840;SDS011;20142;28.494;-16.312;2023-10-08T12:43:32;24.02;;;6.10;;
33840;SDS011;20142;28.494;-16.312;2023-10-08T12:48:39;22.20;;;5.40;;
33840;SDS011;20142;28.494;-16.312;2023-10-08T12:53:41;26.80;;;5.50;;
33840;SDS011;20142;28.494;-16.312;2023-10-08T12:58:51;31.75;;;6.28;;
33840;SDS011;20142;28.494;-16.312;2023-10-08T13:03:54;34.05;;;6.78;;
33840;SDS011;20142;28.494;-16.312;2023-10-08T13:09:01;31.75;;;6.38;;
33840;SDS011;20142;28.494;-16.312;2023-10-08T13:14:09;31.35;;;6.55;;
33840;SDS011;20142;28.494;-16.312;2023-10-08T13:19:12;30.10;;;6.55;;
33840;SDS011;20142;28.494;-16.312;2023-10-08T13:24:13;32.67;;;6.70;;
33840;SDS011;20142;28.494;-16.312;2023-10-08T13:29:17;28.15;;;5.78;;
33840;SDS011;20142;28.494;-16.312;2023-10-08T13:34:19;26.38;;;6.55;;
33840;SDS011;20142;28.494;-16.312;2023-10-08T13:39:22;38.72;;;6.47;;
33840;SDS011;20142;28.494;-16.312;2023-10-08T13:44:24;42.05;;;7.07;;
33840;SDS011;20142;28.494;-16.312;2023-10-08T13:49:29;28.08;;;5.90;;
33840;SDS011;20142;28.494;-16.312;2023-10-08T13:54:31;27.98;;;6.55;;
33840;SDS011;20142;28.494;-16.312;2023-10-08T13:59:36;23.40;;;6.65;;
33840;SDS011;20142;28.494;-16.312;2023-10-08T14:04:38;29.95;;;6.75;;
33840;SDS011;20142;28.494;-16.312;2023-10-08T14:09:46;36.65;;;7.70;;
33840;SDS011;20142;28.494;-16.312;2023-10-08T14:14:48;35.83;;;7.65;;
33840;SDS011;20142;28.494;-16.312;2023-10-08T14:19:49;30.40;;;7.53;;
33840;SDS011;20142;28.494;-16.312;2023-10-08T14:25:00;34.83;;;6.78;;
33840;SDS011;20142;28.494;-16.312;2023-10-08T14:30:03;29.17;;;6.88;;
33840;SDS011;20142;28.494;-16.312;2023-10-08T14:35:06;29.38;;;7.82;;
33840;SDS011;20142;28.494;-16.312;2023-10-08T14:40:27;34.08;;;7.32;;
33840;SDS011;20142;28.494;-16.312;2023-10-08T14:45:47;37.50;;;8.38;;
33840;SDS011;20142;28.494;-16.312;2023-10-08T14:50:49;29.23;;;6.55;;
33840;SDS011;20142;28.494;-16.312;2023-10-08T14:55:52;35.67;;;7.65;;
33840;SDS011;20142;28.494;-16.312;2023-10-08T15:00:53;34.35;;;8.35;;
33840;SDS011;20142;28.494;-16.312;2023-10-08T15:05:55;35.83;;;8.52;;
33840;SDS011;20142;28.494;-16.312;2023-10-08T15:10:57;50.72;;;10.48;;
33840;SDS011;20142;28.494;-16.312;2023-10-08T15:16:01;50.05;;;10.30;;
33840;SDS011;20142;28.494;-16.312;2023-10-08T15:21:05;52.95;;;10.63;;
33840;SDS011;20142;28.494;-16.312;2023-10-08T15:26:08;58.92;;;10.52;;
33840;SDS011;20142;28.494;-16.312;2023-10-08T15:31:12;46.95;;;10.10;;
33840;SDS011;20142;28.494;-16.312;2023-10-08T15:36:14;52.88;;;10.60;;
33840;SDS011;20142;28.494;-16.312;2023-10-08T15:41:16;50.22;;;10.77;;
33840;SDS011;20142;28.494;-16.312;2023-10-08T15:46:20;52.42;;;10.20;;
33840;SDS011;20142;28.494;-16.312;2023-10-08T15:51:21;57.45;;;10.68;;
33840;SDS011;20142;28.494;-16.312;2023-10-08T15:56:26;61.53;;;10.70;;
33840;SDS011;20142;28.494;-16.312;2023-10-08T16:01:28;54.65;;;10.68;;
33840;SDS011;20142;28.494;-16.312;2023-10-08T16:06:30;50.38;;;10.00;;
33840;SDS011;20142;28.494;-16.312;2023-10-08T16:11:32;51.85;;;10.60;;
33840;SDS011;20142;28.494;-16.312;2023-10-08T16:16:35;46.42;;;10.32;;
33840;SDS011;20142;28.494;-16.312;2023-10-08T16:21:37;50.03;;;14.70;;
33840;SDS011;20142;28.494;-16.312;2023-10-08T16:26:40;53.58;;;10.75;;
33840;SDS011;20142;28.494;-16.312;2023-10-08T16:31:44;58.20;;;10.63;;
33840;SDS011;20142;28.494;-16.312;2023-10-08T16:36:48;54.13;;;10.48;;
33840;SDS011;20142;28.494;-16.312;2023-10-08T16:41:50;50.30;;;9.85;;
33840;SDS011;20142;28.494;-16.312;2023-10-08T16:46:55;50.83;;;10.52;;
33840;SDS011;20142;28.494;-16.312;2023-10-08T16:51:57;49.08;;;9.15;;
33840;SDS011;20142;28.494;-16.312;2023-10-08T16:57:00;53.88;;;10.20;;
33840;SDS011;20142;28.494;-16.312;2023-10-08T17:02:02;53.00;;;10.23;;
33840;SDS011;20142;28.494;-16.312;2023-10-08T17:07:04;45.95;;;9.48;;
33840;SDS011;20142;28.494;-16.312;2023-10-08T17:12:06;49.20;;;10.40;;
33840;SDS011;20142;28.494;-16.312;2023-10-08T17:17:10;59.65;;;9.70;;
33840;SDS011;20142;28.494;-16.312;2023-10-08T17:22:13;42.95;;;9.07;;
33840;SDS011;20142;28.494;-16.312;2023-10-08T17:27:14;53.85;;;9.40;;
33840;SDS011;20142;28.494;-16.312;2023-10-08T17:32:16;51.95;;;10.18;;
33840;SDS011;20142;28.494;-16.312;2023-10-08T17:37:22;51.10;;;10.10;;
33840;SDS011;20142;28.494;-16.312;2023-10-08T17:42:24;44.53;;;9.40;;
33840;SDS011;20142;28.494;-16.312;2023-10-08T17:47:28;48.90;;;8.23;;
33840;SDS011;20142;28.494;-16.312;2023-10-08T17:52:29;49.97;;;8.65;;
33840;SDS011;20142;28.494;-16.312;2023-10-08T17:57:31;50.55;;;9.02;;
33840;SDS011;20142;28.494;-16.312;2023-10-08T18:02:34;55.15;;;9.45;;
33840;SDS011;20142;28.494;-16.312;2023-10-08T18:07:36;43.08;;;8.82;;
33840;SDS011;20142;28.494;-16.312;2023-10-08T18:12:39;47.95;;;8.55;;
33840;SDS011;20142;28.494;-16.312;2023-10-08T18:17:42;57.05;;;8.70;;
33840;SDS011;20142;28.494;-16.312;2023-10-08T18:22:47;50.50;;;8.45;;
33840;SDS011;20142;28.494;-16.312;2023-10-08T18:27:52;47.97;;;8.65;;
33840;SDS011;20142;28.494;-16.312;2023-10-08T18:32:54;48.15;;;8.50;;
33840;SDS011;20142;28.494;-16.312;2023-10-08T18:37:56;44.13;;;8.38;;
33840;SDS011;20142;28.494;-16.312;2023-10-08T18:43:00;47.13;;;8.02;;
33840;SDS011;20142;28.494;-16.312;2023-10-08T18:48:02;42.78;;;7.55;;
33840;SDS011;20142;28.494;-16.312;2023-10-08T18:53:05;45.42;;;8.07;;
33840;SDS011;20142;28.494;-16.312;2023-10-08T18:58:08;42.45;;;7.53;;
33840;SDS011;20142;28.494;-16.312;2023-10-08T19:03:10;45.17;;;7.60;;
33840;SDS011;20142;28.494;-16.312;2023-10-08T19:08:12;37.88;;;7.95;;
33840;SDS011;20142;28.494;-16.312;2023-10-08T19:13:15;43.50;;;8.30;;
33840;SDS011;20142;28.494;-16.312;2023-10-08T19:18:18;27.30;;;6.75;;
33840;SDS011;20142;28.494;-16.312;2023-10-08T19:23:23;31.58;;;7.18;;
33840;SDS011;20142;28.494;-16.312;2023-10-08T19:28:25;30.35;;;7.80;;
33840;SDS011;20142;28.494;-16.312;2023-10-08T19:33:27;35.13;;;7.90;;
33840;SDS011;20142;28.494;-16.312;2023-10-08T19:38:30;38.65;;;7.78;;
33840;SDS011;20142;28.494;-16.312;2023-10-08T19:43:32;36.00;;;7.63;;
33840;SDS011;20142;28.494;-16.312;2023-10-08T19:48:34;29.17;;;7.53;;
33840;SDS011;20142;28.494;-16.312;2023-10-08T19:53:37;39.10;;;7.40;;
33840;SDS011;20142;28.494;-16.312;2023-10-08T19:58:40;30.73;;;6.47;;
33840;SDS011;20142;28.494;-16.312;2023-10-08T20:03:41;38.08;;;7.60;;
33840;SDS011;20142;28.494;-16.312;2023-10-08T20:08:44;32.30;;;7.05;;
33840;SDS011;20142;28.494;-16.312;2023-10-08T20:13:49;34.58;;;7.47;;
33840;SDS011;20142;28.494;-16.312;2023-10-08T20:18:51;31.50;;;8.18;;
33840;SDS011;20142;28.494;-16.312;2023-10-08T20:23:53;38.75;;;7.43;;
33840;SDS011;20142;28.494;-16.312;2023-10-08T20:28:55;35.20;;;7.20;;
33840;SDS011;20142;28.494;-16.312;2023-10-08T20:33:58;32.80;;;7.35;;
33840;SDS011;20142;28.494;-16.312;2023-10-08T20:39:00;38.47;;;7.68;;
33840;SDS011;20142;28.494;-16.312;2023-10-08T20:44:03;42.55;;;8.15;;
33840;SDS011;20142;28.494;-16.312;2023-10-08T20:49:05;44.63;;;7.22;;
33840;SDS011;20142;28.494;-16.312;2023-10-08T20:54:07;37.50;;;7.85;;
33840;SDS011;20142;28.494;-16.312;2023-10-08T20:59:09;38.90;;;7.40;;
33840;SDS011;20142;28.494;-16.312;2023-10-08T21:04:11;40.17;;;8.35;;
33840;SDS011;20142;28.494;-16.312;2023-10-08T21:09:12;38.95;;;7.82;;
33840;SDS011;20142;28.494;-16.312;2023-10-08T21:14:16;41.63;;;8.05;;
33840;SDS011;20142;28.494;-16.312;2023-10-08T21:19:18;40.75;;;7.47;;
33840;SDS011;20142;28.494;-16.312;2023-10-08T21:24:19;39.65;;;7.55;;
33840;SDS011;20142;28.494;-16.312;2023-10-08T21:29:21;38.47;;;8.05;;
33840;SDS011;20142;28.494;-16.312;2023-10-08T21:34:23;45.70;;;8.70;;
33840;SDS011;20142;28.494;-16.312;2023-10-08T21:39:28;37.13;;;7.35;;
33840;SDS011;20142;28.494;-16.312;2023-10-08T21:44:31;61.38;;;10.02;;
33840;SDS011;20142;28.494;-16.312;2023-10-08T21:49:32;59.15;;;9.95;;
33840;SDS011;20142;28.494;-16.312;2023-10-08T21:54:34;65.53;;;9.55;;
33840;SDS011;20142;28.494;-16.312;2023-10-08T21:59:36;70.97;;;10.73;;
33840;SDS011;20142;28.494;-16.312;2023-10-08T22:04:37;53.90;;;9.98;;
33840;SDS011;20142;28.494;-16.312;2023-10-08T22:09:39;52.53;;;9.88;;
33840;SDS011;20142;28.494;-16.312;2023-10-08T22:14:42;50.67;;;9.05;;
33840;SDS011;20142;28.494;-16.312;2023-10-08T22:19:47;60.40;;;9.40;;
33840;SDS011;20142;28.494;-16.312;2023-10-08T22:24:50;58.55;;;9.25;;
33840;SDS011;20142;28.494;-16.312;2023-10-08T22:29:52;61.35;;;10.32;;
33840;SDS011;20142;28.494;-16.312;2023-10-08T22:34:55;59.72;;;10.27;;
33840;SDS011;20142;28.494;-16.312;2023-10-08T22:40:01;57.67;;;10.18;;
33840;SDS011;20142;28.494;-16.312;2023-10-08T22:45:15;54.92;;;9.95;;
33840;SDS011;20142;28.494;-16.312;2023-10-08T22:50:17;49.17;;;9.40;;
33840;SDS011;20142;28.494;-16.312;2023-10-08T22:55:38;60.65;;;10.25;;
33840;SDS011;20142;28.494;-16.312;2023-10-08T23:00:39;61.70;;;10.07;;
33840;SDS011;20142;28.494;-16.312;2023-10-08T23:05:42;50.55;;;9.60;;
33840;SDS011;20142;28.494;-16.312;2023-10-08T23:10:44;60.03;;;9.05;;
33840;SDS011;20142;28.494;-16.312;2023-10-08T23:15:46;60.38;;;9.68;;
33840;SDS011;20142;28.494;-16.312;2023-10-08T23:20:50;58.10;;;9.15;;
33840;SDS011;20142;28.494;-16.312;2023-10-08T23:25:52;63.35;;;9.70;;
33840;SDS011;20142;28.494;-16.312;2023-10-08T23:30:59;60.53;;;8.90;;
33840;SDS011;20142;28.494;-16.312;2023-10-08T23:36:07;62.35;;;9.65;;
33840;SDS011;20142;28.494;-16.312;2023-10-08T23:41:14;44.00;;;8.80;;
33840;SDS011;20142;28.494;-16.312;2023-10-08T23:46:16;53.90;;;9.23;;
33840;SDS011;20142;28.494;-16.312;2023-10-08T23:51:22;52.13;;;9.45;;
33840;SDS011;20142;28.494;-16.312;2023-10-08T23:56:24;51.53;;;9.30;;
